Time;durP1;ratioP1;P1;durP2;ratioP2;P2;SDS_P1;SDS_P2;PMS_P1;PMS_P2;Temp;Humidity;BMP_temperature;BMP_pressure;BME280_temperature;BME280_humidity;BME280_pressure;Samples;Min_cycle;Max_cycle;Signal;HPM_P1;HPM_P2
2022/03/24 00:01:51;;;;;;;64.60;43.33;;;8.80;99.90;;;;;;5073734;28;20036;-70
2022/03/24 00:04:17;;;;;;;67.75;42.90;;;8.70;99.90;;;;;;5077155;28;20045;-72
2022/03/24 00:06:43;;;;;;;76.80;44.47;;;;;;;;;;5070035;28;20036;-70
2022/03/24 00:09:09;;;;;;;65.60;42.90;;;;;;;;;;5074995;28;20045;-70
2022/03/24 00:11:35;;;;;;;69.35;44.70;;;;;;;;;;5065570;28;20529;-70
2022/03/24 00:14:01;;;;;;;69.28;43.83;;;;;;;;;;5059565;28;20464;-70
2022/03/24 00:16:26;;;;;;;72.75;45.58;;;8.50;99.90;;;;;;5046472;28;20043;-70
2022/03/24 00:18:52;;;;;;;72.90;47.28;;;8.30;99.90;;;;;;5038293;28;20123;-69
2022/03/24 00:21:18;;;;;;;70.45;46.80;;;;;;;;;;5058896;28;20521;-70
2022/03/24 00:23:44;;;;;;;71.80;46.45;;;8.40;99.90;;;;;;5063363;28;20111;-70
2022/03/24 00:26:10;;;;;;;72.32;46.22;;;;;;;;;;5041256;28;20029;-70
2022/03/24 00:28:36;;;;;;;73.38;45.92;;;8.50;99.90;;;;;;5059551;28;20049;-68
2022/03/24 00:31:02;;;;;;;74.68;45.67;;;;;;;;;;5065789;28;20093;-70
2022/03/24 00:33:28;;;;;;;72.05;45.85;;;8.40;99.90;;;;;;5038206;28;20052;-70
2022/03/24 00:35:54;;;;;;;74.05;47.50;;;;;;;;;;5059904;28;20033;-70
2022/03/24 00:38:20;;;;;;;75.45;47.95;;;8.40;99.90;;;;;;5055838;28;20098;-69
2022/03/24 00:40:46;;;;;;;75.43;46.85;;;;;;;;;;5056148;28;20041;-70
2022/03/24 00:43:12;;;;;;;73.90;45.65;;;;;;;;;;5059233;28;20041;-70
2022/03/24 00:45:40;;;;;;;75.60;46.10;;;8.10;99.90;;;;;;5056686;28;20072;-70
2022/03/24 00:48:06;;;;;;;78.15;46.58;;;;;;;;;;5059744;28;20095;-70
2022/03/24 00:50:32;;;;;;;72.68;46.47;;;8.20;99.90;;;;;;5061705;28;20040;-70
2022/03/24 00:52:58;;;;;;;79.18;48.70;;;;;;;;;;5060281;28;20037;-70
2022/03/24 00:55:24;;;;;;;81.07;50.97;;;;;;;;;;5059750;28;20068;-71
2022/03/24 00:57:52;;;;;;;76.53;47.45;;;8.20;99.90;;;;;;5057869;28;20041;-69
2022/03/24 01:00:20;;;;;;;70.90;45.63;;;8.20;99.90;;;;;;5059544;28;20036;-70
2022/03/24 01:02:50;;;;;;;74.47;48.72;;;8.10;99.90;;;;;;5050595;28;20039;-70
2022/03/24 01:05:16;;;;;;;73.35;46.75;;;8.00;99.90;;;;;;5062373;28;20063;-70
2022/03/24 01:07:43;;;;;;;74.80;47.92;;;8.00;99.90;;;;;;5054648;28;20422;-68
2022/03/24 01:10:11;;;;;;;76.60;50.08;;;7.80;99.90;;;;;;5063473;28;20451;-70
2022/03/24 01:12:39;;;;;;;77.68;46.20;;;8.00;99.90;;;;;;5061728;28;20169;-70
2022/03/24 01:15:07;;;;;;;80.78;49.38;;;7.80;99.90;;;;;;5052421;28;20104;-70
2022/03/24 01:17:34;;;;;;;87.20;52.80;;;7.80;99.90;;;;;;5058249;28;20072;-70
2022/03/24 01:20:00;;;;;;;86.15;50.78;;;7.90;99.90;;;;;;5051244;28;20132;-69
2022/03/24 01:22:27;;;;;;;84.15;50.53;;;;;;;;;;5052134;28;20048;-69
2022/03/24 01:24:52;;;;;;;87.65;49.38;;;7.70;99.90;;;;;;5043520;28;20033;-69
2022/03/24 01:27:18;;;;;;;85.78;53.00;;;7.60;99.90;;;;;;5054102;28;20043;-68
2022/03/24 01:29:44;;;;;;;89.88;52.28;;;7.40;99.90;;;;;;5059388;28;20047;-70
2022/03/24 01:32:10;;;;;;;91.63;54.35;;;7.60;99.90;;;;;;5052504;28;20666;-69
2022/03/24 01:34:38;;;;;;;84.03;50.88;;;7.70;99.90;;;;;;5060549;28;20051;-69
2022/03/24 01:37:05;;;;;;;90.10;53.65;;;;;;;;;;5058788;28;20542;-69
2022/03/24 01:39:31;;;;;;;91.03;53.95;;;7.50;99.90;;;;;;5055884;28;20041;-69
2022/03/24 01:41:57;;;;;;;87.40;54.25;;;;;;;;;;5057912;28;20040;-69
2022/03/24 01:44:24;;;;;;;89.65;52.42;;;;;;;;;;5066681;28;20466;-68
2022/03/24 01:47:00;;;;;;;89.53;51.58;;;7.50;99.90;;;;;;5056755;28;20563;-69
2022/03/24 01:49:27;;;;;;;97.70;55.58;;;7.40;99.90;;;;;;5066354;28;20037;-69
2022/03/24 01:51:54;;;;;;;92.32;53.47;;;7.30;99.90;;;;;;5058342;28;20041;-70
2022/03/24 01:54:21;;;;;;;91.03;54.05;;;7.40;99.90;;;;;;5067992;28;20127;-69
2022/03/24 01:56:48;;;;;;;94.88;54.90;;;;;;;;;;5057481;28;20044;-69
2022/03/24 01:59:16;;;;;;;90.40;50.65;;;7.50;99.90;;;;;;5058104;28;20110;-69
2022/03/24 02:01:43;;;;;;;92.10;52.67;;;7.20;99.90;;;;;;5063721;28;20036;-70
2022/03/24 02:04:09;;;;;;;92.72;52.35;;;;;;;;;;5058901;28;20033;-68
2022/03/24 02:06:36;;;;;;;89.30;52.58;;;;;;;;;;5056279;28;20036;-68
2022/03/24 02:09:02;;;;;;;91.00;53.30;;;7.20;99.90;;;;;;5057425;28;20048;-69
2022/03/24 02:11:29;;;;;;;87.95;51.53;;;7.30;99.90;;;;;;5058216;28;20047;-71
2022/03/24 02:13:55;;;;;;;98.07;55.15;;;7.20;99.90;;;;;;5058274;28;20418;-69
2022/03/24 02:16:27;;;;;;;98.93;55.80;;;;;;;;;;5041751;28;20092;-69
2022/03/24 02:18:59;;;;;;;94.22;55.65;;;7.30;99.90;;;;;;5052174;28;20576;-69
2022/03/24 02:21:25;;;;;;;92.60;52.97;;;;;;;;;;5034591;28;20037;-69
2022/03/24 02:23:51;;;;;;;93.75;53.35;;;7.30;99.90;;;;;;5054479;28;20032;-69
2022/03/24 02:26:17;;;;;;;94.82;54.28;;;7.30;99.90;;;;;;5066780;28;20048;-69
2022/03/24 02:28:45;;;;;;;91.57;53.63;;;;;;;;;;5037212;28;20082;-69
2022/03/24 02:31:11;;;;;;;101.22;55.47;;;;;;;;;;5058067;28;20569;-70
2022/03/24 02:33:37;;;;;;;90.20;51.38;;;;;;;;;;5062694;28;20076;-69
2022/03/24 02:36:04;;;;;;;92.55;52.75;;;7.20;99.90;;;;;;5059477;28;20590;-69
2022/03/24 02:38:32;;;;;;;95.13;54.50;;;;;;;;;;5063909;28;20414;-69
2022/03/24 02:40:58;;;;;;;92.70;52.45;;;7.20;99.90;;;;;;5057204;28;20422;-69
2022/03/24 02:43:24;;;;;;;93.32;51.10;;;7.00;99.90;;;;;;5061564;28;20528;-67
2022/03/24 02:45:50;;;;;;;95.32;53.00;;;7.10;99.90;;;;;;5058054;28;20029;-69
2022/03/24 02:48:16;;;;;;;92.05;53.65;;;7.00;99.90;;;;;;5060025;28;20046;-69
2022/03/24 02:50:43;;;;;;;95.35;53.78;;;7.60;99.90;;;;;;5059827;28;20503;-68
2022/03/24 02:53:09;;;;;;;96.90;54.22;;;;;;;;;;5062634;28;20051;-69
2022/03/24 02:55:35;;;;;;;92.93;52.95;;;6.90;99.90;;;;;;5051277;28;20124;-69
2022/03/24 02:58:01;;;;;;;93.70;53.00;;;;;;;;;;5060180;28;20621;-68
2022/03/24 03:00:27;;;;;;;99.45;52.85;;;;;;;;;;5057462;28;20041;-71
2022/03/24 03:02:54;;;;;;;99.38;54.58;;;;;;;;;;5037369;28;20494;-68
2022/03/24 03:05:20;;;;;;;100.38;54.60;;;7.00;99.90;;;;;;5059869;28;20029;-69
2022/03/24 03:07:47;;;;;;;101.55;56.22;;;;;;;;;;5054753;28;20029;-67
2022/03/24 03:10:13;;;;;;;100.72;55.38;;;6.90;99.90;;;;;;5043512;28;20427;-69
2022/03/24 03:12:39;;;;;;;100.53;55.88;;;;;;;;;;5059881;28;20042;-69
2022/03/24 03:15:05;;;;;;;102.75;53.67;;;6.80;99.90;;;;;;5055708;28;20098;-70
2022/03/24 03:17:33;;;;;;;91.63;52.17;;;;;;;;;;5056952;28;20059;-69
2022/03/24 03:20:00;;;;;;;100.10;56.45;;;;;;;;;;5043895;28;20047;-69
2022/03/24 03:22:26;;;;;;;92.28;53.15;;;6.90;99.90;;;;;;5054619;28;20070;-69
2022/03/24 03:24:52;;;;;;;96.60;54.45;;;;;;;;;;5043130;28;20033;-69
2022/03/24 03:27:18;;;;;;;101.68;54.92;;;6.70;99.90;;;;;;5052640;28;20556;-67
2022/03/24 03:29:44;;;;;;;91.45;53.40;;;;;;;;;;5057177;28;20045;-70
2022/03/24 03:32:11;;;;;;;93.43;51.95;;;6.70;99.90;;;;;;5057499;28;20040;-69
2022/03/24 03:34:38;;;;;;;94.45;52.63;;;;;;;;;;5062162;28;20106;-69
2022/03/24 03:37:04;;;;;;;96.93;55.83;;;6.70;99.90;;;;;;5041942;28;20041;-68
2022/03/24 03:39:30;;;;;;;99.95;53.50;;;6.50;99.90;;;;;;5054243;28;20067;-68
2022/03/24 03:41:57;;;;;;;98.45;51.90;;;6.60;99.90;;;;;;5060843;28;20033;-68
2022/03/24 03:44:23;;;;;;;93.32;51.97;;;6.40;99.90;;;;;;5038483;28;20037;-69
2022/03/24 03:46:50;;;;;;;97.70;52.88;;;;;;;;;;5067375;28;20086;-68
2022/03/24 03:49:16;;;;;;;98.35;52.50;;;6.50;99.90;;;;;;5057774;28;20258;-68
2022/03/24 03:51:42;;;;;;;89.30;51.88;;;;;;;;;;5062738;28;20032;-69
2022/03/24 03:54:08;;;;;;;86.78;50.08;;;6.50;99.90;;;;;;5065780;28;20044;-68
2022/03/24 03:56:34;;;;;;;92.55;52.40;;;;;;;;;;5061079;28;20043;-69
2022/03/24 03:59:00;;;;;;;93.95;51.45;;;6.40;99.90;;;;;;5054615;28;20532;-69
2022/03/24 04:01:26;;;;;;;97.78;53.83;;;;;;;;;;5064067;28;20064;-68
2022/03/24 04:03:52;;;;;;;90.32;52.53;;;6.20;99.90;;;;;;5062882;28;20495;-67
2022/03/24 04:06:18;;;;;;;94.72;52.83;;;;;;;;;;5056968;28;20039;-69
2022/03/24 04:08:44;;;;;;;90.90;50.47;;;6.30;99.90;;;;;;5062280;28;20032;-68
2022/03/24 04:11:12;;;;;;;99.13;53.75;;;6.00;99.90;;;;;;5056339;28;20498;-69
2022/03/24 04:13:39;;;;;;;90.75;49.63;;;6.20;99.90;;;;;;5059814;28;20043;-69
2022/03/24 04:16:06;;;;;;;92.38;52.17;;;;;;;;;;5062933;28;20048;-68
2022/03/24 04:18:32;;;;;;;89.78;51.28;;;;;;;;;;5061009;28;20044;-69
2022/03/24 04:20:58;;;;;;;92.57;50.75;;;;;;;;;;5059981;28;20041;-70
2022/03/24 04:23:25;;;;;;;89.07;51.83;;;;;;;;;;5064985;28;20053;-69
2022/03/24 04:25:51;;;;;;;92.22;53.00;;;;;;;;;;5060755;28;20041;-69
2022/03/24 04:28:17;;;;;;;92.50;49.67;;;;;;;;;;5060417;28;20136;-68
2022/03/24 04:30:43;;;;;;;96.00;51.70;;;6.00;99.90;;;;;;5061930;28;20036;-69
2022/03/24 04:33:10;;;;;;;95.57;53.63;;;;;;;;;;5059280;28;20040;-69
2022/03/24 04:35:36;;;;;;;100.90;54.72;;;6.10;99.90;;;;;;5057551;28;20052;-68
2022/03/24 04:38:04;;;;;;;92.75;53.85;;;6.10;99.90;;;;;;5059583;28;20041;-69
2022/03/24 04:40:30;;;;;;;104.32;54.70;;;;;;;;;;5060751;28;20080;-69
2022/03/24 04:42:56;;;;;;;102.30;53.67;;;;;;;;;;5053545;28;20041;-68
2022/03/24 04:45:22;;;;;;;92.25;53.03;;;;;;;;;;5057685;28;20040;-69
2022/03/24 04:47:48;;;;;;;99.00;54.80;;;6.00;99.90;;;;;;5034683;28;20048;-69
2022/03/24 04:50:17;;;;;;;96.47;51.55;;;6.00;99.90;;;;;;5061259;28;20116;-68
2022/03/24 04:52:43;;;;;;;98.30;54.53;;;;;;;;;;5049671;28;20033;-69
2022/03/24 04:55:09;;;;;;;99.18;53.88;;;;;;;;;;5052656;28;20040;-69
2022/03/24 04:57:35;;;;;;;94.78;53.67;;;5.80;99.90;;;;;;5063451;28;20037;-69
2022/03/24 05:00:01;;;;;;;97.32;54.78;;;;;;;;;;5035191;28;20056;-71
2022/03/24 05:02:27;;;;;;;100.97;54.13;;;;;;;;;;5042493;28;20041;-71
2022/03/24 05:04:54;;;;;;;99.82;53.95;;;5.90;99.90;;;;;;5063484;28;20143;-69
2022/03/24 05:07:20;;;;;;;98.43;56.13;;;;;;;;;;5058981;28;20032;-69
2022/03/24 05:09:46;;;;;;;94.78;52.15;;;;;;;;;;5059146;28;20091;-69
2022/03/24 05:12:11;;;;;;;95.30;52.47;;;5.80;99.90;;;;;;5058787;28;20052;-69
2022/03/24 05:14:37;;;;;;;89.20;51.05;;;5.80;99.90;;;;;;5057975;28;20037;-69
2022/03/24 05:17:06;;;;;;;97.22;52.03;;;;;;;;;;5051470;28;20368;-69
2022/03/24 05:19:31;;;;;;;99.35;52.28;;;5.80;99.90;;;;;;5054726;28;20517;-68
2022/03/24 05:21:58;;;;;;;105.60;55.47;;;;;;;;;;5058652;28;20189;-69
2022/03/24 05:24:24;;;;;;;105.45;52.40;;;;;;;;;;5054913;28;20036;-69
2022/03/24 05:26:50;;;;;;;108.57;57.97;;;5.80;99.90;;;;;;5059145;28;20045;-70
2022/03/24 05:29:15;;;;;;;103.95;56.15;;;5.70;99.90;;;;;;5059904;28;20048;-69
2022/03/24 05:31:41;;;;;;;98.15;54.05;;;5.70;99.90;;;;;;5057423;28;20322;-69
2022/03/24 05:34:06;;;;;;;100.72;53.50;;;5.60;99.90;;;;;;5067205;28;20048;-69
2022/03/24 05:36:32;;;;;;;101.63;53.92;;;5.70;99.90;;;;;;5043749;28;20494;-69
2022/03/24 05:38:58;;;;;;;114.40;58.00;;;5.70;99.90;;;;;;5057005;28;20037;-68
2022/03/24 05:41:24;;;;;;;106.43;55.65;;;5.80;99.90;;;;;;5057130;28;20509;-69
2022/03/24 05:44:05;;;;;;;106.25;57.00;;;5.60;99.90;;;;;;5044034;28;20033;-69
2022/03/24 05:46:42;;;;;;;103.38;54.45;;;5.70;99.90;;;;;;5044212;28;20040;-70
2022/03/24 05:49:09;;;;;;;100.93;53.60;;;5.80;99.90;;;;;;5061185;28;20042;-69
2022/03/24 05:51:35;;;;;;;101.53;54.15;;;5.50;99.90;;;;;;5045247;28;20122;-69
2022/03/24 05:54:03;;;;;;;105.25;54.92;;;5.70;99.90;;;;;;5040341;28;20076;-69
2022/03/24 05:56:29;;;;;;;98.05;53.90;;;5.80;99.90;;;;;;5063136;28;20037;-69
2022/03/24 05:58:55;;;;;;;101.13;52.45;;;5.70;99.90;;;;;;5050989;28;20056;-70
2022/03/24 06:01:23;;;;;;;104.80;56.80;;;5.80;99.90;;;;;;5060157;28;20037;-69
2022/03/24 06:03:50;;;;;;;101.05;55.28;;;5.90;99.90;;;;;;5055233;28;20077;-69
2022/03/24 06:06:17;;;;;;;104.22;56.72;;;5.90;99.90;;;;;;5064447;28;20055;-69
2022/03/24 06:08:43;;;;;;;98.07;53.10;;;5.80;99.90;;;;;;5056116;28;20032;-70
2022/03/24 06:11:11;;;;;;;103.45;56.20;;;5.70;99.90;;;;;;5049021;28;20048;-69
2022/03/24 06:13:37;;;;;;;104.00;55.95;;;5.80;99.90;;;;;;5058075;28;20052;-69
2022/03/24 06:16:02;;;;;;;102.22;54.80;;;5.90;99.90;;;;;;5060984;28;20044;-69
2022/03/24 06:18:28;;;;;;;104.05;55.50;;;6.00;99.90;;;;;;5058770;28;20423;-70
2022/03/24 06:20:54;;;;;;;100.30;55.17;;;6.00;99.90;;;;;;5058834;28;20862;-69
2022/03/24 06:23:19;;;;;;;103.95;57.08;;;5.90;99.90;;;;;;5065957;28;20037;-70
2022/03/24 06:25:45;;;;;;;105.05;54.72;;;6.00;99.90;;;;;;5056070;28;20510;-69
2022/03/24 06:28:11;;;;;;;109.82;58.22;;;6.20;99.90;;;;;;5058447;28;20047;-69
2022/03/24 06:30:37;;;;;;;101.28;55.78;;;6.30;99.90;;;;;;5052365;28;20070;-69
2022/03/24 06:33:03;;;;;;;101.95;56.38;;;6.40;99.90;;;;;;5065467;28;20080;-69
2022/03/24 06:35:29;;;;;;;102.00;53.30;;;6.30;99.90;;;;;;5063330;28;20068;-68
2022/03/24 06:37:54;;;;;;;106.32;56.65;;;6.50;99.90;;;;;;5051565;28;20047;-68
2022/03/24 06:40:20;;;;;;;103.72;55.08;;;6.40;99.90;;;;;;5065418;28;20530;-69
2022/03/24 06:42:46;;;;;;;106.20;57.75;;;6.40;99.90;;;;;;5061116;28;20040;-69
2022/03/24 06:45:13;;;;;;;117.68;59.70;;;6.60;99.90;;;;;;5034865;28;20406;-71
2022/03/24 06:47:40;;;;;;;112.88;60.42;;;6.70;99.90;;;;;;5062390;28;20437;-69
2022/03/24 06:50:10;;;;;;;110.72;59.08;;;6.80;99.90;;;;;;5042694;28;20041;-70
2022/03/24 06:52:36;;;;;;;113.60;60.17;;;6.80;99.90;;;;;;5063476;28;20518;-69
2022/03/24 06:55:03;;;;;;;119.97;63.30;;;6.60;99.90;;;;;;5057946;28;20123;-69
2022/03/24 06:57:28;;;;;;;128.45;65.93;;;6.90;99.90;;;;;;5062188;28;20541;-69
2022/03/24 06:59:54;;;;;;;127.20;66.20;;;7.00;99.90;;;;;;5038839;28;20056;-69
2022/03/24 07:02:20;;;;;;;119.25;64.85;;;7.10;99.90;;;;;;5057643;28;20517;-69
2022/03/24 07:04:47;;;;;;;124.63;68.72;;;7.10;99.90;;;;;;5060543;28;20048;-69
2022/03/24 07:07:13;;;;;;;127.03;70.45;;;7.30;99.90;;;;;;5060975;28;20044;-70
2022/03/24 07:09:39;;;;;;;132.80;70.30;;;7.40;99.90;;;;;;5045855;28;20120;-69
2022/03/24 07:12:05;;;;;;;134.27;72.30;;;7.40;99.90;;;;;;5040089;28;20124;-69
2022/03/24 07:14:30;;;;;;;135.27;70.25;;;7.50;99.90;;;;;;5060096;28;20068;-69
2022/03/24 07:16:56;;;;;;;138.30;72.90;;;7.60;99.90;;;;;;5050798;28;20067;-69
2022/03/24 07:19:21;;;;;;;131.65;70.78;;;7.70;99.90;;;;;;5055323;28;20139;-69
2022/03/24 07:21:47;;;;;;;127.28;67.63;;;7.80;99.90;;;;;;5056222;28;20114;-68
2022/03/24 07:24:13;;;;;;;137.70;70.15;;;;;;;;;;5065070;28;20039;-68
2022/03/24 07:26:39;;;;;;;126.63;70.97;;;7.90;99.90;;;;;;5063310;28;20040;-68
2022/03/24 07:29:05;;;;;;;125.00;69.65;;;8.00;99.90;;;;;;5056107;28;20037;-70
2022/03/24 07:31:33;;;;;;;122.85;66.50;;;;;;;;;;5058890;28;20044;-69
2022/03/24 07:34:01;;;;;;;128.45;66.68;;;;;;;;;;5059460;28;20048;-69
2022/03/24 07:36:27;;;;;;;130.02;70.93;;;;;;;;;;5055369;28;20045;-70
2022/03/24 07:38:54;;;;;;;133.82;72.78;;;;;;;;;;5040418;28;20098;-70
2022/03/24 07:41:21;;;;;;;135.23;70.68;;;;;;;;;;5061540;28;20133;-70
2022/03/24 07:43:47;;;;;;;136.30;72.65;;;;;;;;;;5058657;28;20037;-70
2022/03/24 07:46:13;;;;;;;123.70;69.45;;;;;;;;;;5059217;28;20541;-70
2022/03/24 07:48:39;;;;;;;132.45;70.82;;;;;;;;;;5057425;28;20540;-68
2022/03/24 07:51:07;;;;;;;126.70;67.22;;;;;;;;;;5062102;28;20045;-70
2022/03/24 07:53:34;;;;;;;124.25;68.05;;;;;;;;;;5058570;28;20032;-70
2022/03/24 07:56:01;;;;;;;121.03;66.80;;;;;;;;;;5045045;28;20036;-70
2022/03/24 07:58:27;;;;;;;109.07;62.58;;;;;;;;;;5045898;28;20407;-69
2022/03/24 08:00:57;;;;;;;120.15;65.03;;;;;;;;;;5065906;28;20064;-70
2022/03/24 08:03:22;;;;;;;110.13;62.60;;;;;;;;;;5041587;28;20037;-70
2022/03/24 08:05:49;;;;;;;115.75;63.20;;;;;;;;;;5067732;28;20147;-71
2022/03/24 08:08:15;;;;;;;112.93;63.45;;;;;;;;;;5039922;28;20413;-70
2022/03/24 08:10:42;;;;;;;112.97;63.75;;;;;;;;;;5061710;28;20119;-70
2022/03/24 08:13:08;;;;;;;98.53;57.35;;;;;;;;;;5058198;28;20044;-70
2022/03/24 08:15:36;;;;;;;104.53;58.35;;;;;;;;;;5063948;28;20110;-70
2022/03/24 08:18:02;;;;;;;102.35;58.72;;;;;;;;;;5045899;28;20044;-70
2022/03/24 08:20:28;;;;;;;97.78;55.55;;;;;;;;;;5042818;28;20040;-69
2022/03/24 08:22:54;;;;;;;95.32;57.63;;;;;;;;;;5042781;28;20498;-69
2022/03/24 08:25:21;;;;;;;89.60;51.83;;;;;;;;;;5064397;28;20063;-70
2022/03/24 08:27:47;;;;;;;92.40;52.17;;;;;;;;;;5058717;28;20120;-69
2022/03/24 08:30:13;;;;;;;82.15;49.03;;;;;;;;;;5059943;28;20471;-68
2022/03/24 08:32:39;;;;;;;84.95;52.05;;;;;;;;;;5039907;28;20119;-69
2022/03/24 08:35:05;;;;;;;88.80;50.00;;;;;;;;;;5062074;28;20048;-69
2022/03/24 08:37:33;;;;;;;83.93;49.15;;;;;;;;;;5055021;28;20464;-70
2022/03/24 08:39:58;;;;;;;81.15;48.35;;;11.00;99.90;;;;;;5058829;28;20115;-69
2022/03/24 08:42:24;;;;;;;82.43;48.92;;;10.90;99.90;;;;;;5066745;28;20078;-69
2022/03/24 08:44:49;;;;;;;85.50;49.33;;;11.10;99.90;;;;;;5042369;28;20039;-70
2022/03/24 08:47:15;;;;;;;79.35;47.90;;;11.20;99.90;;;;;;5060148;28;20107;-70
2022/03/24 08:49:41;;;;;;;82.38;47.00;;;11.10;99.90;;;;;;5065032;28;20041;-70
2022/03/24 08:52:08;;;;;;;82.50;46.33;;;11.50;99.90;;;;;;5058839;28;20166;-70
2022/03/24 08:54:34;;;;;;;74.60;45.75;;;11.70;99.90;;;;;;5062126;28;20036;-69
2022/03/24 08:57:00;;;;;;;83.82;46.45;;;11.50;99.90;;;;;;5061347;28;20041;-70
2022/03/24 08:59:25;;;;;;;84.32;45.78;;;11.60;99.90;;;;;;5056398;28;20119;-70
2022/03/24 09:01:51;;;;;;;83.20;48.47;;;11.90;99.90;;;;;;5067149;28;20032;-70
2022/03/24 09:04:18;;;;;;;76.20;45.53;;;12.10;99.90;;;;;;5058492;28;20032;-70
2022/03/24 09:06:44;;;;;;;82.47;46.15;;;12.10;99.90;;;;;;5045267;28;20046;-69
2022/03/24 09:09:10;;;;;;;77.45;46.15;;;;;;;;;;5064780;28;20494;-70
2022/03/24 09:11:36;;;;;;;83.65;46.38;;;12.30;99.90;;;;;;5058027;28;20045;-70
2022/03/24 09:14:01;;;;;;;80.75;45.92;;;12.50;99.90;;;;;;5051859;28;20460;-70
2022/03/24 09:16:27;;;;;;;86.75;48.85;;;12.30;99.90;;;;;;5056633;28;20504;-69
2022/03/24 09:18:52;;;;;;;77.47;47.22;;;12.60;99.90;;;;;;5044483;28;20120;-69
2022/03/24 09:21:18;;;;;;;89.53;52.60;;;12.70;99.90;;;;;;5058191;28;20090;-70
2022/03/24 09:23:43;;;;;;;75.38;45.60;;;12.80;99.90;;;;;;5055408;28;20032;-69
2022/03/24 09:26:10;;;;;;;79.60;47.40;;;;;;;;;;5059512;28;20033;-69
2022/03/24 09:28:36;;;;;;;81.00;46.80;;;;;;;;;;5056709;28;20040;-70
2022/03/24 09:31:02;;;;;;;81.28;49.72;;;13.00;99.90;;;;;;5057209;28;20036;-69
2022/03/24 09:33:28;;;;;;;71.60;42.38;;;13.00;99.90;;;;;;5066022;28;20097;-70
2022/03/24 09:35:54;;;;;;;71.88;40.42;;;;;;;;;;5056711;28;20675;-70
2022/03/24 09:38:20;;;;;;;63.88;38.65;;;13.40;99.90;;;;;;5062501;28;20048;-71
2022/03/24 09:40:46;;;;;;;67.70;39.72;;;;;;;;;;5062885;28;20446;-70
2022/03/24 09:43:15;;;;;;;62.55;38.15;;;13.40;99.90;;;;;;5039186;28;20413;-70
2022/03/24 09:45:47;;;;;;;60.65;37.70;;;13.60;99.90;;;;;;5062224;28;20401;-70
2022/03/24 09:48:15;;;;;;;59.50;37.58;;;13.80;99.90;;;;;;5056280;28;20060;-71
2022/03/24 09:50:44;;;;;;;59.22;34.55;;;13.90;99.90;;;;;;5043333;28;20041;-70
2022/03/24 09:53:11;;;;;;;61.17;38.95;;;14.20;99.90;;;;;;5041706;28;20044;-70
2022/03/24 09:55:37;;;;;;;65.95;38.97;;;14.00;99.90;;;;;;5057024;28;20044;-70
2022/03/24 09:58:06;;;;;;;65.95;37.55;;;14.20;99.90;;;;;;5038404;28;20047;-70
2022/03/24 10:00:31;;;;;;;66.70;39.50;;;14.20;99.90;;;;;;5043998;28;20043;-70
2022/03/24 10:03:17;;;;;;;65.28;38.03;;;14.40;99.90;;;;;;5060489;28;20033;-70
2022/03/24 10:06:02;;;;;;;58.75;35.92;;;14.60;98.90;;;;;;5036439;28;20036;-70
2022/03/24 10:08:29;;;;;;;66.45;38.55;;;14.50;99.90;;;;;;5044712;28;20033;-70
2022/03/24 10:11:06;;;;;;;62.58;35.83;;;14.50;99.50;;;;;;5058542;28;20037;-71
2022/03/24 10:13:44;;;;;;;55.10;35.35;;;14.50;99.30;;;;;;5056849;28;21006;-71
2022/03/24 10:16:11;;;;;;;60.33;35.55;;;14.60;99.60;;;;;;5056139;28;20523;-69
2022/03/24 10:18:37;;;;;;;55.75;34.38;;;;;;;;;;5067015;28;20041;-70
2022/03/24 10:21:08;;;;;;;58.70;34.03;;;14.70;99.60;;;;;;5054745;28;20049;-71
2022/03/24 10:23:34;;;;;;;57.10;36.78;;;;;;;;;;5035788;28;20032;-71
2022/03/24 10:26:05;;;;;;;60.70;33.03;;;15.10;99.50;;;;;;5065551;28;20037;-71
2022/03/24 10:28:31;;;;;;;51.05;32.55;;;;;;;;;;5055418;28;20040;-71
2022/03/24 10:30:59;;;;;;;50.55;32.53;;;15.00;98.80;;;;;;5059236;28;20446;-70
2022/03/24 10:33:30;;;;;;;55.17;34.85;;;15.10;99.90;;;;;;5044112;28;20048;-71
2022/03/24 10:36:15;;;;;;;53.50;32.13;;;15.30;98.10;;;;;;5059726;28;20044;-72
2022/03/24 10:38:43;;;;;;;50.40;33.10;;;15.10;99.10;;;;;;5034838;28;20151;-71
2022/03/24 10:41:26;;;;;;;55.47;33.65;;;15.00;99.90;;;;;;5065287;28;20055;-70
2022/03/24 10:43:56;;;;;;;51.67;31.05;;;15.40;98.70;;;;;;5043612;28;20093;-71
2022/03/24 10:46:28;;;;;;;50.08;30.10;;;15.20;98.30;;;;;;5064126;28;20060;-71
2022/03/24 10:48:54;;;;;;;50.67;31.30;;;15.50;99.50;;;;;;5058957;28;20072;-70
2022/03/24 10:51:25;;;;;;;57.58;33.13;;;15.70;99.30;;;;;;5051188;28;20051;-71
2022/03/24 10:53:52;;;;;;;40.00;22.13;;;;;;;;;;5039530;28;20055;-71
2022/03/24 10:56:35;;;;;;;44.47;26.50;;;15.50;98.00;;;;;;5055596;28;20037;-70
2022/03/24 10:59:03;;;;;;;47.92;28.27;;;15.70;98.30;;;;;;5061995;28;20105;-70
2022/03/24 11:01:31;;;;;;;43.47;24.63;;;15.70;97.50;;;;;;5059858;28;20089;-71
2022/03/24 11:03:56;;;;;;;44.08;27.60;;;15.80;98.10;;;;;;5052162;28;20502;-71
2022/03/24 11:06:22;;;;;;;48.33;30.52;;;15.70;97.40;;;;;;5063117;28;20072;-70
2022/03/24 11:08:59;;;;;;;46.65;27.25;;;15.80;97.40;;;;;;5059132;28;20055;-71
2022/03/24 11:11:25;;;;;;;44.50;26.98;;;;;;;;;;5056875;28;20044;-71
2022/03/24 11:13:59;;;;;;;50.58;28.23;;;15.90;97.80;;;;;;5058283;28;20044;-70
2022/03/24 11:16:25;;;;;;;;;;;16.10;96.60;;;;;;5056638;28;20051;-71
2022/03/24 11:18:52;;;;;;;50.35;30.80;;;16.00;97.40;;;;;;5061006;28;19921;-70
2022/03/24 11:21:58;;;;;;;55.05;32.03;;;16.00;98.70;;;;;;5064216;28;20379;-71
2022/03/24 11:24:24;;;;;;;53.90;32.25;;;16.00;98.50;;;;;;5049957;28;20033;-70
2022/03/24 11:26:51;;;;;;;52.42;32.20;;;16.30;98.70;;;;;;5065978;28;20040;-71
2022/03/24 11:29:18;;;;;;;58.60;35.17;;;16.20;98.60;;;;;;5069696;28;20132;-71
2022/03/24 11:31:45;;;;;;;53.42;34.30;;;16.20;98.70;;;;;;5069645;28;20032;-70
2022/03/24 11:34:11;;;;;;;53.35;33.88;;;16.10;97.50;;;;;;5063786;28;20437;-71
2022/03/24 11:36:37;;;;;;;51.95;32.30;;;16.00;98.00;;;;;;5049552;28;20443;-71
2022/03/24 11:39:09;;;;;;;57.05;33.67;;;16.20;98.00;;;;;;5032661;28;20168;-70
2022/03/24 11:41:37;;;;;;;53.13;32.80;;;16.20;97.90;;;;;;5049792;28;20529;-71
2022/03/24 11:44:17;;;;;;;54.03;33.53;;;16.50;97.70;;;;;;5049910;28;20183;-71
2022/03/24 11:46:55;;;;;;;56.88;34.20;;;16.30;97.60;;;;;;5049665;28;20041;-72
2022/03/24 11:49:28;;;;;;;61.40;33.58;;;16.50;97.50;;;;;;5032633;28;20041;-71
2022/03/24 11:51:57;;;;;;;58.15;32.53;;;16.40;97.40;;;;;;5054389;28;20049;-71
2022/03/24 11:54:31;;;;;;;59.00;34.42;;;16.30;96.60;;;;;;5049856;28;20041;-71
2022/03/24 11:57:34;;;;;;;59.65;36.20;;;16.50;97.60;;;;;;5033290;28;20460;-71
2022/03/24 12:00:12;;;;;;;55.20;33.22;;;16.60;97.30;;;;;;5049046;28;20045;-71
2022/03/24 12:02:45;;;;;;;51.70;32.75;;;16.60;96.60;;;;;;5049761;28;20037;-72
2022/03/24 12:05:15;;;;;;;65.07;33.60;;;16.60;96.30;;;;;;5049523;28;20033;-71
2022/03/24 12:07:41;;;;;;;53.35;31.10;;;16.40;97.00;;;;;;5036101;28;20430;-71
2022/03/24 12:10:13;;;;;;;58.65;33.13;;;16.60;97.20;;;;;;5052540;28;20113;-71
2022/03/24 12:12:59;;;;;;;56.90;32.70;;;16.40;97.20;;;;;;5035765;28;20080;-71
2022/03/24 12:15:24;;;;;;;58.40;34.20;;;16.70;97.20;;;;;;5036254;28;20060;-71
2022/03/24 12:18:03;;;;;;;49.78;31.83;;;16.70;96.30;;;;;;5055370;28;20044;-72
2022/03/24 12:20:45;;;;;;;53.25;32.47;;;16.70;96.40;;;;;;5046778;28;20033;-70
2022/03/24 12:23:11;;;;;;;55.40;32.47;;;16.90;95.60;;;;;;5070232;28;20116;-71
2022/03/24 12:25:38;;;;;;;52.67;31.95;;;16.70;96.40;;;;;;5056271;28;20128;-71
2022/03/24 12:28:06;;;;;;;53.50;31.85;;;16.50;96.30;;;;;;5069334;28;20040;-71
2022/03/24 12:30:50;;;;;;;51.03;30.85;;;16.70;96.60;;;;;;5069307;28;20438;-70
2022/03/24 12:33:18;;;;;;;49.13;30.67;;;16.70;97.30;;;;;;5069147;28;20044;-71
2022/03/24 12:35:49;;;;;;;50.40;30.85;;;17.00;97.30;;;;;;5069382;28;20084;-71
2022/03/24 12:38:42;;;;;;;47.65;29.88;;;17.00;95.80;;;;;;5061327;28;20159;-70
2022/03/24 12:41:11;;;;;;;45.47;26.48;;;18.10;95.90;;;;;;5069566;28;20409;-71
2022/03/24 12:43:54;;;;;;;53.08;28.73;;;17.00;95.70;;;;;;5058664;28;20037;-72
2022/03/24 12:46:21;;;;;;;;;;;16.90;95.50;;;;;;5060580;28;20032;-71
2022/03/24 12:48:47;;;;;;;43.40;26.63;;;17.10;95.80;;;;;;5061735;28;19916;-71
2022/03/24 12:51:22;;;;;;;46.63;26.25;;;17.10;95.50;;;;;;5060644;28;20040;-72
2022/03/24 12:54:15;;;;;;;45.25;28.90;;;17.00;96.30;;;;;;5075336;22;21660;-70
2022/03/24 12:56:43;;;;;;;44.10;26.67;;;17.00;95.40;;;;;;5031026;28;20048;-72
2022/03/24 12:59:09;;;;;;;42.95;27.02;;;17.30;96.40;;;;;;5034544;28;20072;-70
2022/03/24 13:01:36;;;;;;;51.13;25.20;;;17.20;97.00;;;;;;5035755;28;20048;-71
2022/03/24 13:04:06;;;;;;;51.05;31.95;;;17.40;96.80;;;;;;5034171;28;20088;-69